ADDS METAR Data INFO
IDs: Format: Raw Decoded Include TAF

Data at: 1527 UTC 18 Jun 2018

KCDR 181523Z AUTO 01006KT 3SM -RA BR BKN004 BKN008 OVC014 13/13 A3008 RMK AO2 P0007 T01330133
KCDR 181515Z AUTO 02006KT 1 3/4SM RA BR FEW004 BKN008 OVC014 13/13 A3009 RMK AO2 P0006 T01330133
KCDR 181501Z AUTO 01005KT 1 1/2SM RA BR BKN004 OVC010 13/13 A3009 RMK AO2 P0002 T01330133
KCDR 181453Z AUTO 02003KT 2SM RA BR BKN007 BKN011 OVC016 13/13 A3009 RMK AO2 RAB07E33B38 SLP190 P0004 60005 T01330133 53005
KCDR 181433Z AUTO 03004KT 6SM BR BKN005 BKN008 OVC020 13/13 A3009 RMK AO2 RAB07E33 P0001 T01330128
KCDR 181425Z AUTO 04006KT 3SM -RA BR OVC004 13/13 A3008 RMK AO2 RAB07 P0001 T01330128
KCDR 181408Z AUTO 03005KT 1 3/4SM -RA BR OVC004 13/13 A3008 RMK AO2 RAB07 P0001 T01330133
KCDR 181353Z AUTO 03007KT 2SM BR OVC004 13/13 A3008 RMK AO2 RAE29 CIG 002V007 SLP184 P0000 T01280128
KCDR 181338Z AUTO 02005KT 1 1/2SM BR OVC005 13/13 A3008 RMK AO2 RAE29 CIG 002V006 P0000 T01280128
KCDR 181329Z AUTO 02004KT 2SM BR OVC006 13/13 A3008 RMK AO2 RAE29 CIG 002V009 P0000 T01280128
KCDR 181253Z AUTO 03006KT 2SM -RA BR OVC004 13/13 A3008 RMK AO2 RAE04B30 SLP184 P0001 T01280128
KCDR 181216Z AUTO 02007KT 1 3/4SM BR OVC004 13/13 A3007 RMK AO2 RAE04 P0000 T01280128
KCDR 181203Z AUTO 03007KT 3SM -RA BR OVC004 13/13 A3008 RMK AO2 CIG 003V009 P0000 T01280128
KCDR 181153Z AUTO 04009KT 2 1/2SM -RA BR OVC004 13/13 A3008 RMK AO2 CIG 003V009 SLP183 P0005 60016 70100 T01280128 10128 20117 51001
KCDR 181141Z AUTO 04007KT 1 1/2SM RA BR OVC005 12/12 A3008 RMK AO2 P0004 T01220122
KCDR 181113Z AUTO 03009KT 2 1/2SM -RA BR OVC005 12/12 A3007 RMK AO2 CIG 003V009 P0002 T01220122
KCDR 181053Z AUTO 04007KT 3SM -RA BR OVC004 12/12 A3008 RMK AO2 RAB0959 CIG 003V009 SLP183 P0004 T01220122
KCDR 181050Z AUTO 04009KT 3SM -RA BR OVC004 12/12 A3008 RMK AO2 RAB0959 CIG 003V008 P0003
KCDR 181040Z AUTO 04011KT 2 1/2SM -RA BR OVC004 12/12 A3008 RMK AO2 RAB0959 CIG 003V008 P0002 T01220122
KCDR 181030Z AUTO 04009KT 2 1/2SM -RA BR OVC005 12/12 A3008 RMK AO2 RAB0959 CIG 003V007 P0001 T01220122
KCDR 181009Z AUTO 04008KT 3SM -RA BR OVC005 12/12 A3007 RMK AO2 RAB0959 CIG 003V009 P0000 T01220122
KCDR 180953Z AUTO 03009KT 3SM BR BKN004 OVC008 12/12 A3007 RMK AO2 RAE29 CIG 002V006 SLP182 P0002 T01220122
KCDR 180853Z AUTO 00000KT 3SM -RA BR OVC004 12/12 A3008 RMK AO2 SLP183 P0003 60005 T01220122 53000
KCDR 180848Z AUTO 02004KT 3SM -RA BR OVC004 12/12 A3007 RMK AO2 P0003
KCDR 180838Z AUTO 04005KT 2 1/2SM -RA BR OVC004 12/12 A3007 RMK AO2 P0002 T01220122
KCDR 180753Z AUTO 02005KT 6SM -RA BR OVC004 12/12 A3007 RMK AO2 RAE17B43 SLP182 P0000 T01170117
KCDR 180653Z AUTO 03009KT 3SM -RA BR OVC004 12/12 A3007 RMK AO2 CIG 003V007 SLP183 P0002 T01170117 401560117
KCDR 180624Z AUTO 03009KT 4SM -RA BR OVC004 12/12 A3008 RMK AO2 P0001 T01170117
KCDR 180553Z AUTO 05009KT 2SM -RA BR BKN004 OVC007 12/12 A3009 RMK AO2 RAB0458 CIG 002V006 SLP190 P0002 60004 T01170117 10133 20117 50003
KCDR 180516Z AUTO 03010KT 2 1/2SM -RA BR OVC003 12/12 A3010 RMK AO2 RAB0458 P0000 T01170117
KCDR 180453Z AUTO 05012KT 5SM BR OVC003 12/12 A3010 RMK AO2 SLP192 T01170117
KCDR 180443Z AUTO 04008KT 4SM BR OVC004 12/12 A3010 RMK AO2 T01170117
KCDR 180413Z AUTO 04012KT 10SM OVC005 12/12 A3009 RMK AO2 T01170117
KCDR 180353Z AUTO 04012KT 10SM OVC004 12/12 A3008 RMK AO2 SLP187 T01170117
KCDR 180348Z AUTO 04010KT 10SM OVC004 12/12 A3008 RMK AO2
KCDR 180253Z AUTO 05015KT 10SM OVC007 12/12 A3007 RMK AO2 RAE32 SLP180 P0000 60002 T01220122 51010
KCDR 180201Z AUTO 03011KT 3SM -RA BR OVC006 13/12 A3006 RMK AO2 CIG 005V010 P0000 T01280122
KCDR 180153Z AUTO 03013G18KT 2 1/2SM -RA BR OVC006 13/12 A3006 RMK AO2 CIG 005V011 SLP177 P0001 T01280122
KCDR 180137Z AUTO 03013KT 2 1/2SM -RA BR OVC006 13/13 A3005 RMK AO2 CIG 003V011 P0001 T01280128
KCDR 180124Z AUTO 02016G22KT 1 3/4SM -RA BR BKN005 OVC009 13/13 A3006 RMK AO2 CIG 003V008 P0001 T01280128
KCDR 180053Z AUTO 02014G20KT 2SM -RA BR BKN006 OVC014 13/13 A3005 RMK AO2 RAB2356 SLP174 P0001 T01330128
KCDR 180030Z AUTO 02011KT 1 3/4SM -RA BR BKN006 OVC010 13/13 A3005 RMK AO2 RAB2356 P0001 T01330128
KCDR 180008Z AUTO 02012KT 2SM -RA BR OVC007 13/13 A3004 RMK AO2 RAB2356 P0000 T01330128
KCDR 172353Z AUTO 03014KT 8SM OVC006 13/13 A3003 RMK AO2 CIG 006V012 SLP167 60003 T01330128 10144 20133 53005
KCDR 172253Z AUTO 02016G26KT 9SM BKN007 OVC011 14/13 A3003 RMK AO2 PK WND 03026/2246 RAE47 CIG 005V010 SLP164 P0000 T01390133
KCDR 172228Z AUTO 02016G21KT 4SM -RA BR OVC008 14/14 A3002 RMK AO2 P0000 T01440139
KCDR 172153Z AUTO 02016G22KT 2 1/2SM -RA BR OVC007 14/13 A3002 RMK AO2 SLP161 P0001 T01390133
KCDR 172053Z AUTO 02012KT 2 1/2SM -RA BR BKN009 BKN015 OVC019 14/14 A3002 RMK AO2 SLP158 P0000 60002 T01440139 53005
KCDR 172029Z AUTO 02014KT 3SM -RA BR SCT008 OVC012 14/14 A3002 RMK AO2 P0000 T01390139
KCDR 172000Z AUTO 02015G22KT 2SM -RA BR BKN006 OVC011 14/14 A3001 RMK AO2 CIG 004V009 P0000 T01440139
KCDR 171953Z AUTO 01015G21KT 2 1/2SM -RA BR SCT006 OVC011 14/14 A3000 RMK AO2 RAB00 CIG 007V013 SLP153 P0001 T01440139
KCDR 171942Z AUTO 36012KT 3SM -RA BR BKN007 OVC013 14/14 A3000 RMK AO2 RAB00 CIG 004V008 P0001 T01440139
KCDR 171930Z AUTO 01013KT 1 3/4SM -RA BR BKN008 OVC013 14/14 A3000 RMK AO2 RAB00 CIG 005V010 P0001 T01440139
KCDR 171906Z AUTO 01014KT 2 1/2SM -RA BR BKN008 OVC014 14/14 A3000 RMK AO2 RAB00 P0000 T01440139
KCDR 171853Z AUTO 01011G20KT 5SM BR OVC012 14/13 A3000 RMK AO2 RAE49 SLP152 P0001 T01440133
KCDR 171851Z AUTO 01013KT 6SM BR OVC012 14/13 A3000 RMK AO2 RAE49 P0001
KCDR 171809Z AUTO 01013G18KT 6SM -RA BR BKN006 BKN013 OVC055 14/14 A2999 RMK AO2 P0001 T01440139
KCDR 171802Z AUTO 01010KT 4SM -RA BR SCT006 BKN014 OVC055 14/14 A2999 RMK AO2 P0001 T01440144
KCDR 171753Z AUTO 01014KT 4SM -RA BR SCT006 BKN023 OVC055 14/14 A2999 RMK AO2 SLP149 P0043 60077 T01440139 10144 20133 53015
KCDR 171744Z AUTO 36013KT 2SM RA BR SCT006 BKN016 OVC046 14/14 A3000 RMK AO2 P0043 T01440139
KCDR 171742Z AUTO 36014KT 1 3/4SM RA BR SCT006 BKN014 OVC036 14/14 A3000 RMK AO2 P0042 T01390139
KCDR 171729Z AUTO 34009KT 1/2SM +RA FG SCT006 OVC012 14/14 A3000 RMK AO2 P0036 T01390139
KCDR 171722Z AUTO 36010KT 1/2SM +RA FG BKN006 OVC012 13/13 A3000 RMK AO2 P0026 T01330133
KCDR 171653Z AUTO 03014KT 1 1/4SM -RA BR OVC006 14/14 A2996 RMK AO2 CIG 004V011 SLP138 P0001 T01390139
KCDR 171649Z AUTO 04011KT 1 1/4SM -RA BR OVC006 14/14 A2995 RMK AO2 CIG 004V009 P0001
KCDR 171630Z AUTO 02012KT 2SM -RA BR BKN007 OVC010 14/14 A2995 RMK AO2 P0000 T01390139
KCDR 171613Z AUTO 02012KT 3SM -RA BR BKN005 OVC013 14/14 A2995 RMK AO2 CIG 004V009 P0000 T01390139
KCDR 171553Z AUTO 03013G20KT 2 1/2SM -RA BR BKN007 OVC013 14/14 A2994 RMK AO2 CIG 004V009 SLP132 P0010 T01390139
KCDR 171529Z AUTO 03013KT 6SM -RA BR BKN006 BKN012 OVC036 14/14 A2995 RMK AO2 P0009 T01390139
KCDR 171514Z AUTO 03014KT 3SM -RA BR SCT007 BKN012 OVC039 14/14 A2995 RMK AO2 P0008 T01390139
KCDR 171506Z AUTO 03014KT 2SM RA BR SCT007 BKN034 OVC055 14/14 A2995 RMK AO2 P0007 T01390139
KCDR 171500Z AUTO 04015G20KT 1 1/4SM +RA BR BKN007 BKN010 OVC018 14/14 A2995 RMK AO2 P0006 T01390139
KCDR 171453Z AUTO 03012KT 2SM RA BR BKN007 OVC013 14/14 A2995 RMK AO2 SLP135 P0010 60023 T01390139 53016
KCDR 171432Z AUTO 03013KT 3SM -RA BR BKN005 OVC012 14/14 A2994 RMK AO2 P0004 T01390139
KCDR 171429Z AUTO 03012KT 2 1/2SM -RA BR BKN004 OVC012 14/14 A2994 RMK AO2 P0004 T01390139
KCDR 171419Z AUTO 03013KT 3SM -RA BR BKN004 OVC010 14/14 A2993 RMK AO2 P0002 T01390139
KCDR 171401Z AUTO 03012KT 2SM -RA BR OVC004 14/14 A2993 RMK AO2 LTG DSNT S CIG 003V006 P0001 T01390139
KCDR 171353Z AUTO 02010KT 1 3/4SM -RA BR OVC004 14/14 A2993 RMK AO2 LTG DSNT S RAB08 CIG 003V006 SLP122 P0013 T01390139
KCDR 171335Z AUTO 03009KT 1 1/2SM RA BR OVC005 14/14 A2993 RMK AO2 RAB08 P0005 T01390139
KCDR 171325Z AUTO 03013KT 2SM -RA BR OVC006 14/14 A2993 RMK AO2 RAB08 CIG 004V009 P0001 T01390139
KCDR 171253Z AUTO 03016G21KT 10SM OVC005 14/14 A2992 RMK AO2 SLP117 T01440139
KCDR 171153Z AUTO 02011KT 10SM OVC005 14/14 A2990 RMK AO2 SLP108 60003 70022 T01440144 10156 20144 51012
KCDR 171053Z AUTO 03011KT 10SM OVC005 15/14 A2990 RMK AO2 SLP104 T01500144
KCDR 171014Z AUTO 03008KT 10SM OVC005 15/15 A2989 RMK AO2 T01500150
KCDR 171003Z AUTO 03012KT 10SM OVC004 15/14 A2988 RMK AO2 T01500144
KCDR 170953Z AUTO 03012G17KT 10SM OVC005 15/15 A2988 RMK AO2 RAE16 SLP096 P0001 T01500150
KCDR 170853Z AUTO 03010KT 6SM -RA BR OVC005 16/15 A2986 RMK AO2 SLP089 P0001 60002 T01560150 51006
KCDR 170753Z AUTO 02010KT 9SM -RA OVC005 15/15 A2986 RMK AO2 RAB0656E08B39 SLP091 P0001 T01500150
KCDR 170653Z AUTO 02013KT 10SM OVC005 15/15 A2985 RMK AO2 RAB04E19B39E48 SLP089 P0000 T01500150 402940150
KCDR 170553Z AUTO 02009KT 10SM OVC008 16/15 A2984 RMK AO2 RAE06B38E51 PRESRR SLP086 P0000 60019 T01560150 10211 20156 53008
KCDR 170453Z AUTO 09005KT 10SM -RA BKN009 OVC100 16/15 A2983 RMK AO2 SLP083 P0001 T01610150
KCDR 170353Z AUTO 02016G23KT 9SM -RA FEW070 SCT100 BKN120 16/16 A2979 RMK AO2 PK WND 03027/0337 WSHFT 0243 SLP071 P0011 T01610156
KCDR 170328Z AUTO 04017KT 5SM RA BR BKN075 OVC100 17/16 A2981 RMK AO2 WSHFT 0243 LTG DSNT E P0007 T01670161